createdAt,value
2019-02-26T00:01:28.665Z,3.10
2019-02-26T00:03:59.221Z,3.10
2019-02-26T00:06:30.265Z,3.10
2019-02-26T00:09:02.665Z,3.00
2019-02-26T00:11:36.190Z,3.00
2019-02-26T00:14:06.335Z,3.00
2019-02-26T00:16:39.691Z,3.00
2019-02-26T00:19:09.796Z,3.00
2019-02-26T00:21:40.713Z,3.00
2019-02-26T00:24:12.807Z,3.00
2019-02-26T00:26:45.047Z,2.90
2019-02-26T00:29:15.046Z,2.90
2019-02-26T00:31:46.084Z,2.80
2019-02-26T00:34:18.714Z,2.80
2019-02-26T00:36:49.218Z,2.80
2019-02-26T00:39:20.684Z,2.80
2019-02-26T00:41:53.520Z,2.80
2019-02-26T00:44:25.232Z,2.80
2019-02-26T00:46:57.379Z,2.80
2019-02-26T00:49:28.505Z,2.80
2019-02-26T00:51:59.516Z,2.80
2019-02-26T00:54:31.988Z,2.70
2019-02-26T00:57:03.469Z,2.70
2019-02-26T00:59:36.358Z,2.70
2019-02-26T01:02:05.955Z,2.50
2019-02-26T01:04:36.308Z,2.50
2019-02-26T01:07:07.554Z,2.50
2019-02-26T01:09:38.006Z,2.50
2019-02-26T01:12:11.803Z,2.50
2019-02-26T01:14:44.172Z,2.50
2019-02-26T01:17:14.834Z,2.50
2019-02-26T01:19:46.154Z,2.50
2019-02-26T01:22:16.462Z,2.50
2019-02-26T01:24:48.155Z,2.40
2019-02-26T01:27:18.838Z,2.50
2019-02-26T01:29:51.261Z,2.40
2019-02-26T01:32:23.274Z,2.40
2019-02-26T01:34:53.398Z,2.40
2019-02-26T01:37:25.368Z,2.30
2019-02-26T01:39:55.694Z,2.30
2019-02-26T01:42:27.175Z,2.30
2019-02-26T01:44:58.035Z,2.20
2019-02-26T01:47:28.591Z,2.20
2019-02-26T01:49:59.439Z,2.30
2019-02-26T01:52:29.915Z,2.30
2019-02-26T01:55:02.609Z,2.30
2019-02-26T01:57:32.233Z,2.20
2019-02-26T02:00:06.911Z,2.20
2019-02-26T02:02:37.935Z,2.20
2019-02-26T02:05:08.430Z,2.10
2019-02-26T02:07:38.765Z,2.10
2019-02-26T02:10:10.619Z,2.10
2019-02-26T02:12:41.521Z,2.00
2019-02-26T02:15:12.955Z,2.00
2019-02-26T02:17:45.353Z,2.10
2019-02-26T02:20:20.778Z,2.10
2019-02-26T02:22:48.471Z,2.00
2019-02-26T02:25:18.841Z,2.00
2019-02-26T02:27:51.873Z,2.00
2019-02-26T02:30:26.854Z,2.00
2019-02-26T02:32:56.853Z,2.00
2019-02-26T02:35:25.074Z,2.00
2019-02-26T02:37:57.131Z,1.90
2019-02-26T02:40:27.320Z,1.90
2019-02-26T02:42:57.697Z,1.90
2019-02-26T02:45:28.099Z,1.90
2019-02-26T02:48:00.731Z,1.90
2019-02-26T02:50:30.399Z,1.80
2019-02-26T02:53:02.079Z,1.80
2019-02-26T02:55:32.734Z,1.80
2019-02-26T02:58:03.066Z,1.80
2019-02-26T03:00:34.477Z,1.70
2019-02-26T03:03:04.977Z,1.70
2019-02-26T03:05:38.051Z,1.60
2019-02-26T03:08:08.145Z,1.60
2019-02-26T03:10:41.889Z,1.60
2019-02-26T03:13:11.252Z,1.60
2019-02-26T03:15:41.663Z,1.60
2019-02-26T03:18:14.285Z,1.60
2019-02-26T03:20:44.119Z,1.60
2019-02-26T03:23:18.961Z,1.50
2019-02-26T03:25:47.316Z,1.50
2019-02-26T03:28:18.396Z,1.40
2019-02-26T03:30:48.796Z,1.40
2019-02-26T03:33:19.132Z,1.40
2019-02-26T03:35:49.484Z,1.40
2019-02-26T03:38:20.730Z,1.40
2019-02-26T03:40:52.800Z,1.40
2019-02-26T03:43:23.746Z,1.40
2019-02-26T03:45:54.150Z,1.50
2019-02-26T03:48:24.491Z,1.40
2019-02-26T03:50:54.874Z,1.40
2019-02-26T03:53:28.041Z,1.30
2019-02-26T03:56:01.978Z,1.30
2019-02-26T03:58:29.712Z,1.30
2019-02-26T04:01:04.556Z,1.30
2019-02-26T04:03:34.511Z,1.30
2019-02-26T04:06:07.504Z,1.30
2019-02-26T04:08:36.069Z,1.30
2019-02-26T04:11:06.450Z,1.30
2019-02-26T04:13:36.802Z,1.30
2019-02-26T04:16:07.210Z,1.30
2019-02-26T04:18:37.593Z,1.20
2019-02-26T04:21:09.370Z,1.20
2019-02-26T04:23:42.151Z,1.20
2019-02-26T04:26:40.858Z,1.20
2019-02-26T04:29:25.329Z,1.20
2019-02-26T04:32:43.458Z,1.20
2019-02-26T04:35:25.545Z,1.20
2019-02-26T04:38:36.788Z,1.10
2019-02-26T04:41:22.358Z,1.10
2019-02-26T04:44:31.330Z,1.10
2019-02-26T04:47:24.235Z,1.10
2019-02-26T04:49:57.294Z,1.00
2019-02-26T04:52:29.358Z,1.10
2019-02-26T04:54:59.004Z,1.10
2019-02-26T04:57:29.828Z,1.10
2019-02-26T05:00:01.308Z,1.10
2019-02-26T05:02:32.456Z,1.10
2019-02-26T05:05:02.837Z,1.00
2019-02-26T05:07:35.381Z,1.00
2019-02-26T05:10:05.181Z,1.00
2019-02-26T05:12:37.886Z,1.00
2019-02-26T05:15:11.482Z,1.10
2019-02-26T05:17:39.584Z,1.10
2019-02-26T05:20:13.002Z,1.10
2019-02-26T05:22:42.018Z,1.10
2019-02-26T05:25:16.323Z,1.10
2019-02-26T05:27:46.193Z,1.20
2019-02-26T05:30:19.641Z,1.20
2019-02-26T05:32:51.093Z,1.20
2019-02-26T05:35:22.910Z,1.20
2019-02-26T05:37:52.413Z,1.20
2019-02-26T05:40:22.791Z,1.20
2019-02-26T05:42:53.906Z,1.20
2019-02-26T05:45:26.586Z,1.30
2019-02-26T05:47:58.835Z,1.30
2019-02-26T05:50:30.209Z,1.40
2019-02-26T05:53:01.701Z,1.40
2019-02-26T05:55:32.981Z,1.40
2019-02-26T05:58:03.499Z,1.40
2019-02-26T06:00:33.824Z,1.40
2019-02-26T06:03:07.200Z,1.50
2019-02-26T06:05:36.332Z,1.50
2019-02-26T06:08:07.438Z,1.50
2019-02-26T06:10:37.798Z,1.50
2019-02-26T06:13:10.094Z,1.50
2019-02-26T06:15:40.168Z,1.50
2019-02-26T06:18:10.601Z,1.60
2019-02-26T06:20:41.915Z,1.60
2019-02-26T06:23:12.401Z,1.60
2019-02-26T06:25:42.704Z,1.60
2019-02-26T06:28:15.401Z,1.60
2019-02-26T06:30:45.013Z,1.60
2019-02-26T06:33:16.388Z,1.70
2019-02-26T06:35:46.933Z,1.70
2019-02-26T06:38:17.327Z,1.70
2019-02-26T06:40:49.043Z,1.70
2019-02-26T06:43:19.722Z,1.80
2019-02-26T06:45:50.067Z,1.80
2019-02-26T06:48:24.434Z,1.90
2019-02-26T06:50:52.409Z,2.00
2019-02-26T06:53:23.845Z,2.00
2019-02-26T06:55:54.172Z,2.00
2019-02-26T06:58:26.270Z,2.00
2019-02-26T07:00:58.208Z,2.10
2019-02-26T07:03:28.619Z,2.20
2019-02-26T07:06:01.742Z,2.30
2019-02-26T07:08:31.120Z,2.40
2019-02-26T07:11:03.654Z,2.50
2019-02-26T07:13:33.948Z,2.60
2019-02-26T07:16:05.479Z,2.70
2019-02-26T07:18:35.909Z,2.80
2019-02-26T07:21:06.223Z,2.90
2019-02-26T07:23:56.424Z,3.20
2019-02-26T07:26:27.664Z,3.40
2019-02-26T07:28:58.072Z,3.60
2019-02-26T07:31:29.179Z,3.60
2019-02-26T07:34:01.389Z,3.60
2019-02-26T07:36:32.507Z,3.60
2019-02-26T07:39:05.051Z,3.60
2019-02-26T07:41:36.575Z,3.70
2019-02-26T07:44:12.701Z,3.90
2019-02-26T07:46:40.231Z,4.00
2019-02-26T07:49:11.067Z,4.10
2019-02-26T07:51:43.020Z,4.10
2019-02-26T07:54:13.506Z,4.20
2019-02-26T07:56:43.906Z,4.40
2019-02-26T07:59:15.028Z,4.40
2019-02-26T08:01:47.119Z,4.50
2019-02-26T08:04:18.616Z,4.70
2019-02-26T08:06:49.025Z,4.80
2019-02-26T08:09:21.318Z,5.10
2019-02-26T08:11:51.408Z,5.20
2019-02-26T08:14:23.296Z,5.20
2019-02-26T08:16:56.073Z,5.20
2019-02-26T08:19:29.682Z,5.10
2019-02-26T08:21:58.905Z,5.10
2019-02-26T08:24:29.303Z,5.20
2019-02-26T08:27:01.436Z,5.40
2019-02-26T08:29:33.581Z,5.50
2019-02-26T08:32:04.962Z,5.70
2019-02-26T08:34:39.197Z,5.80
2019-02-26T08:37:07.409Z,5.90
2019-02-26T08:39:38.754Z,5.90
2019-02-26T08:42:11.048Z,6.00
2019-02-26T08:44:41.355Z,6.10
2019-02-26T08:47:13.931Z,6.20
2019-02-26T08:49:47.067Z,6.30
2019-02-26T08:52:17.528Z,6.40
2019-02-26T08:54:48.281Z,6.50
2019-02-26T08:57:18.657Z,6.70
2019-02-26T08:59:49.650Z,6.80
2019-02-26T09:02:21.051Z,6.80
2019-02-26T09:04:51.358Z,6.70
2019-02-26T09:07:23.590Z,6.80
2019-02-26T09:09:56.888Z,6.90
2019-02-26T09:12:27.267Z,7.00
2019-02-26T09:14:57.749Z,7.20
2019-02-26T09:17:31.841Z,7.20
2019-02-26T09:20:09.206Z,7.30
2019-02-26T09:22:32.145Z,7.30
2019-02-26T09:25:02.792Z,7.40
2019-02-26T09:27:34.559Z,7.50
2019-02-26T09:30:10.487Z,7.70
2019-02-26T09:32:40.302Z,7.80
2019-02-26T09:35:13.028Z,7.90
2019-02-26T09:37:44.895Z,7.90
2019-02-26T09:40:17.109Z,8.10
2019-02-26T09:42:51.678Z,8.30
2019-02-26T09:45:22.820Z,8.30
2019-02-26T09:47:54.977Z,8.30
2019-02-26T09:50:24.387Z,8.40
2019-02-26T09:52:56.639Z,8.60
2019-02-26T09:55:26.977Z,8.80
2019-02-26T09:57:57.661Z,9.10
2019-02-26T10:00:29.530Z,9.20
2019-02-26T10:03:00.057Z,9.30
2019-02-26T10:05:30.891Z,9.40
2019-02-26T10:08:03.447Z,9.50
2019-02-26T10:10:34.628Z,9.60
2019-02-26T10:13:05.516Z,9.70
2019-02-26T10:15:39.312Z,9.80
2019-02-26T10:18:09.364Z,9.80
2019-02-26T10:20:39.796Z,9.90
2019-02-26T10:23:10.210Z,10.10
2019-02-26T10:25:40.638Z,10.20
2019-02-26T10:28:11.635Z,10.20
2019-02-26T10:30:43.057Z,10.30
2019-02-26T10:33:17.555Z,10.40
2019-02-26T10:35:47.479Z,10.40
2019-02-26T10:38:17.420Z,10.30
2019-02-26T10:40:53.808Z,10.50
2019-02-26T10:43:19.718Z,10.70
2019-02-26T10:45:52.388Z,10.70
2019-02-26T10:48:25.005Z,10.90
2019-02-26T10:50:55.283Z,10.90
2019-02-26T10:53:25.634Z,11.00
2019-02-26T10:55:56.061Z,11.20
2019-02-26T10:58:26.440Z,11.50
2019-02-26T11:00:59.373Z,11.50
2019-02-26T11:03:29.872Z,11.40
2019-02-26T11:06:01.509Z,11.30
2019-02-26T11:08:35.027Z,11.10
2019-02-26T11:11:07.406Z,11.00
2019-02-26T11:13:37.750Z,11.30
2019-02-26T11:16:09.001Z,11.50
2019-02-26T11:18:40.697Z,11.40
2019-02-26T11:21:11.795Z,11.30
2019-02-26T11:23:43.971Z,11.40
2019-02-26T11:26:15.471Z,11.50
2019-02-26T11:28:47.908Z,11.50
2019-02-26T11:31:20.477Z,11.70
2019-02-26T11:33:50.354Z,11.90
2019-02-26T11:36:20.903Z,12.10
2019-02-26T11:38:51.232Z,12.30
2019-02-26T11:41:23.730Z,12.20
2019-02-26T11:43:53.656Z,11.90
2019-02-26T11:46:25.282Z,11.80
2019-02-26T11:48:57.448Z,11.70
2019-02-26T11:51:36.624Z,11.60
2019-02-26T11:54:02.096Z,11.60
2019-02-26T11:56:32.455Z,11.60
2019-02-26T11:59:06.602Z,11.60
2019-02-26T12:01:38.995Z,11.50
2019-02-26T12:04:11.400Z,11.40
2019-02-26T12:06:40.701Z,11.40
2019-02-26T12:09:13.700Z,11.30
2019-02-26T12:11:43.049Z,11.30
2019-02-26T12:14:14.271Z,11.20
2019-02-26T12:16:45.423Z,11.20
2019-02-26T12:19:15.753Z,11.10
2019-02-26T12:21:49.285Z,11.10
2019-02-26T12:24:18.078Z,11.10
2019-02-26T12:26:50.005Z,11.00
2019-02-26T12:29:21.151Z,11.00
2019-02-26T12:31:53.848Z,11.00
2019-02-26T12:34:24.342Z,11.00
2019-02-26T12:36:57.146Z,10.90
2019-02-26T12:39:30.649Z,10.80
2019-02-26T12:41:58.708Z,10.80
2019-02-26T12:44:31.726Z,10.90
2019-02-26T12:47:01.105Z,10.90
2019-02-26T12:49:33.307Z,10.80
2019-02-26T12:52:04.513Z,10.90
2019-02-26T12:54:37.790Z,11.00
2019-02-26T12:57:06.875Z,11.00
2019-02-26T12:59:37.238Z,11.00
2019-02-26T13:02:10.074Z,11.00
2019-02-26T13:04:40.997Z,11.10
2019-02-26T13:07:11.724Z,11.10
2019-02-26T13:09:50.503Z,11.00
2019-02-26T13:12:17.149Z,11.00
2019-02-26T13:14:47.523Z,10.90
2019-02-26T13:17:20.735Z,10.90
2019-02-26T13:19:58.162Z,10.80
2019-02-26T13:22:22.350Z,10.80
2019-02-26T13:24:52.692Z,10.80
2019-02-26T13:27:23.080Z,10.80
2019-02-26T13:29:56.979Z,10.80
2019-02-26T13:32:32.172Z,10.80
2019-02-26T13:35:00.866Z,10.80
2019-02-26T13:37:32.460Z,10.80
2019-02-26T13:40:02.693Z,10.90
2019-02-26T13:42:33.286Z,11.00
2019-02-26T13:45:03.680Z,11.10
2019-02-26T13:47:34.276Z,11.00
2019-02-26T13:50:05.710Z,11.00
2019-02-26T13:52:36.165Z,11.00
2019-02-26T13:55:07.466Z,10.90
2019-02-26T13:57:37.853Z,10.90
2019-02-26T14:00:09.238Z,10.90
2019-02-26T14:02:39.653Z,10.90
2019-02-26T14:05:10.353Z,10.90
2019-02-26T14:07:40.758Z,10.80
2019-02-26T14:10:13.041Z,10.80
2019-02-26T14:12:43.491Z,10.80
2019-02-26T14:15:17.851Z,10.80
2019-02-26T14:17:48.239Z,10.80
2019-02-26T14:20:18.587Z,10.80
2019-02-26T14:22:48.960Z,10.70
2019-02-26T14:25:19.308Z,10.70
2019-02-26T14:27:49.710Z,10.70
2019-02-26T14:30:20.068Z,10.70
2019-02-26T14:32:50.511Z,10.70
2019-02-26T14:35:20.814Z,10.60
2019-02-26T14:37:51.854Z,10.60
2019-02-26T14:40:22.427Z,10.60
2019-02-26T14:42:52.847Z,10.60
2019-02-26T14:45:23.238Z,10.50
2019-02-26T14:47:53.689Z,10.50
2019-02-26T14:50:26.071Z,10.50
2019-02-26T14:52:56.062Z,10.50
2019-02-26T14:55:26.362Z,10.50
2019-02-26T14:57:56.826Z,10.50
2019-02-26T15:00:28.061Z,10.50
2019-02-26T15:02:58.517Z,10.40
2019-02-26T15:05:28.902Z,10.40
2019-02-26T15:07:59.370Z,10.30
2019-02-26T15:10:29.703Z,10.30
2019-02-26T15:13:00.132Z,10.30
2019-02-26T15:15:30.524Z,10.30
2019-02-26T15:18:00.925Z,10.30
2019-02-26T15:20:31.236Z,10.30
2019-02-26T15:23:01.704Z,10.30
2019-02-26T15:25:32.055Z,10.30
2019-02-26T15:28:05.370Z,10.20
2019-02-26T15:30:34.421Z,10.20
2019-02-26T15:33:10.960Z,10.20
2019-02-26T15:35:36.837Z,10.10
2019-02-26T15:38:07.244Z,10.10
2019-02-26T15:40:37.604Z,10.00
2019-02-26T15:43:08.168Z,10.00
2019-02-26T15:45:38.729Z,10.00
2019-02-26T15:48:09.113Z,10.00
2019-02-26T15:50:40.246Z,10.00
2019-02-26T15:53:10.779Z,10.00
2019-02-26T15:55:41.463Z,9.90
2019-02-26T15:58:11.858Z,9.90
2019-02-26T16:00:42.506Z,9.90
2019-02-26T16:03:13.332Z,9.80
2019-02-26T16:05:43.874Z,9.80
2019-02-26T16:08:14.551Z,9.80
2019-02-26T16:10:45.105Z,9.80
2019-02-26T16:13:15.630Z,9.80
2019-02-26T16:15:46.322Z,9.70
2019-02-26T16:18:17.502Z,9.70
2019-02-26T16:20:47.949Z,9.70
2019-02-26T16:23:18.526Z,9.70
2019-02-26T16:25:50.169Z,9.70
2019-02-26T16:28:20.608Z,9.70
2019-02-26T16:30:50.974Z,9.60
2019-02-26T16:33:21.423Z,9.60
2019-02-26T16:35:52.388Z,9.60
2019-02-26T16:38:24.617Z,9.60
2019-02-26T16:40:56.192Z,9.50
2019-02-26T16:43:26.591Z,9.50
2019-02-26T16:45:57.354Z,9.50
2019-02-26T16:48:28.049Z,9.50
2019-02-26T16:50:58.499Z,9.50
2019-02-26T16:53:28.903Z,9.50
2019-02-26T16:55:59.346Z,9.50
2019-02-26T16:58:29.724Z,9.40
2019-02-26T17:01:00.121Z,9.40
2019-02-26T17:03:31.667Z,9.40
2019-02-26T17:06:03.492Z,9.40
2019-02-26T17:08:33.811Z,9.40
2019-02-26T17:11:04.279Z,9.40
2019-02-26T17:13:34.610Z,9.40
2019-02-26T17:16:06.037Z,9.40
2019-02-26T17:18:36.441Z,9.40
2019-02-26T17:21:06.951Z,9.30
2019-02-26T17:23:37.342Z,9.30
2019-02-26T17:26:07.762Z,9.30
2019-02-26T17:28:38.097Z,9.30
2019-02-26T17:31:08.502Z,9.30
2019-02-26T17:33:38.890Z,9.30
2019-02-26T17:36:09.312Z,9.30
2019-02-26T17:38:39.706Z,9.30
2019-02-26T17:41:12.284Z,9.30
2019-02-26T17:43:42.103Z,9.30
2019-02-26T17:46:12.561Z,9.30
2019-02-26T17:48:43.743Z,9.30
2019-02-26T17:51:14.278Z,9.30
2019-02-26T17:53:44.611Z,9.30
2019-02-26T17:56:15.002Z,9.30
2019-02-26T17:58:45.566Z,9.30
2019-02-26T18:01:15.988Z,9.20
2019-02-26T18:03:46.347Z,9.20
2019-02-26T18:06:16.784Z,9.20
2019-02-26T18:08:47.136Z,9.20
2019-02-26T18:11:17.525Z,9.20
2019-02-26T18:13:47.947Z,9.20
2019-02-26T18:16:18.372Z,9.20
2019-02-26T18:18:48.772Z,9.10
2019-02-26T18:21:19.162Z,9.10
2019-02-26T18:23:49.584Z,9.10
2019-02-26T18:26:19.969Z,9.10
2019-02-26T18:28:50.444Z,9.00
2019-02-26T18:31:26.472Z,9.00
2019-02-26T18:33:52.848Z,8.90
2019-02-26T18:36:23.198Z,8.90
2019-02-26T18:38:55.747Z,8.90
2019-02-26T18:41:26.105Z,8.80
2019-02-26T18:44:04.184Z,8.80
2019-02-26T18:46:34.617Z,8.70
2019-02-26T18:49:05.240Z,8.70
2019-02-26T18:51:36.537Z,8.70
2019-02-26T18:54:07.513Z,8.60
2019-02-26T18:56:39.449Z,8.50
2019-02-26T18:59:09.990Z,8.50
2019-02-26T19:01:40.583Z,8.40
2019-02-26T19:04:11.089Z,8.30
2019-02-26T19:06:41.506Z,8.30
2019-02-26T19:09:12.336Z,8.20
2019-02-26T19:11:42.761Z,8.10
2019-02-26T19:14:13.294Z,8.00
2019-02-26T19:16:43.725Z,8.00
2019-02-26T19:19:14.367Z,7.90
2019-02-26T19:21:44.797Z,7.80
2019-02-26T19:24:15.223Z,7.80
2019-02-26T19:26:46.659Z,7.60
2019-02-26T19:29:17.774Z,7.60
2019-02-26T19:31:49.232Z,7.60
2019-02-26T19:34:19.734Z,7.50
2019-02-26T19:36:50.219Z,7.50
2019-02-26T19:39:20.804Z,7.50
2019-02-26T19:41:51.226Z,7.40
2019-02-26T19:44:21.872Z,7.20
2019-02-26T19:46:52.550Z,7.20
2019-02-26T19:49:23.091Z,7.10
2019-02-26T19:51:53.574Z,7.10
2019-02-26T19:54:24.112Z,7.10
2019-02-26T19:56:56.705Z,7.00
2019-02-26T19:59:27.056Z,7.00
2019-02-26T20:01:59.028Z,6.90
2019-02-26T20:04:31.491Z,6.90
2019-02-26T20:07:01.645Z,6.80
2019-02-26T20:09:32.113Z,6.70
2019-02-26T20:12:02.603Z,6.70
2019-02-26T20:14:33.109Z,6.60
2019-02-26T20:17:13.780Z,6.50
2019-02-26T20:19:36.776Z,6.50
2019-02-26T20:22:07.153Z,6.40
2019-02-26T20:24:37.687Z,6.40
2019-02-26T20:27:08.277Z,6.30
2019-02-26T20:29:38.774Z,6.30
2019-02-26T20:32:09.164Z,6.20
2019-02-26T20:34:39.676Z,6.20
2019-02-26T20:37:10.070Z,6.20
2019-02-26T20:39:41.675Z,6.10
2019-02-26T20:42:12.689Z,6.10
2019-02-26T20:44:45.363Z,6.00
2019-02-26T20:47:15.193Z,5.90
2019-02-26T20:49:46.340Z,5.90
2019-02-26T20:52:17.414Z,5.80
2019-02-26T20:54:48.293Z,5.80
2019-02-26T20:57:18.704Z,5.80
2019-02-26T20:59:51.715Z,5.70
2019-02-26T21:02:21.352Z,5.60
2019-02-26T21:04:51.781Z,5.60
2019-02-26T21:07:24.569Z,5.60
2019-02-26T21:10:03.318Z,5.50
2019-02-26T21:12:28.612Z,5.40
2019-02-26T21:14:58.619Z,5.40
2019-02-26T21:17:29.134Z,5.40
2019-02-26T21:19:59.538Z,5.30
2019-02-26T21:22:30.005Z,5.30
2019-02-26T21:25:00.375Z,5.30
2019-02-26T21:27:30.793Z,5.20
2019-02-26T21:30:01.211Z,5.20
2019-02-26T21:32:31.868Z,5.20
2019-02-26T21:35:02.338Z,5.10
2019-02-26T21:37:34.472Z,5.10
2019-02-26T21:40:07.063Z,5.00
2019-02-26T21:42:37.321Z,4.90
2019-02-26T21:45:08.948Z,4.90
2019-02-26T21:47:39.422Z,4.90
2019-02-26T21:50:10.797Z,4.90
2019-02-26T21:52:42.120Z,4.80
2019-02-26T21:55:13.411Z,4.70
2019-02-26T21:57:43.903Z,4.70
2019-02-26T22:00:15.599Z,4.60
2019-02-26T22:02:46.447Z,4.60
2019-02-26T22:05:16.904Z,4.60
2019-02-26T22:07:47.285Z,4.60
2019-02-26T22:10:17.812Z,4.50
2019-02-26T22:12:48.188Z,4.50
2019-02-26T22:15:18.628Z,4.50
2019-02-26T22:17:48.966Z,4.30
2019-02-26T22:20:26.571Z,4.30
2019-02-26T22:22:51.432Z,4.30
2019-02-26T22:25:21.851Z,4.30
2019-02-26T22:27:52.240Z,4.30
2019-02-26T22:30:22.906Z,4.20
2019-02-26T22:32:53.351Z,4.10
2019-02-26T22:35:25.927Z,4.10
2019-02-26T22:37:55.784Z,4.10
2019-02-26T22:40:28.878Z,4.10
2019-02-26T22:42:58.162Z,4.10
2019-02-26T22:45:28.631Z,4.00
2019-02-26T22:47:58.965Z,4.00
2019-02-26T22:50:29.362Z,4.00
2019-02-26T22:53:03.720Z,4.00
2019-02-26T22:55:31.812Z,3.90
2019-02-26T22:58:02.769Z,3.90
2019-02-26T23:00:59.475Z,3.80
2019-02-26T23:03:31.419Z,3.80
2019-02-26T23:06:01.892Z,3.80
2019-02-26T23:08:32.511Z,3.80
2019-02-26T23:11:02.996Z,3.70
2019-02-26T23:13:33.684Z,3.60
2019-02-26T23:16:04.644Z,3.60
2019-02-26T23:18:35.629Z,3.60
2019-02-26T23:21:06.822Z,3.60
2019-02-26T23:23:37.208Z,3.60
2019-02-26T23:26:08.845Z,3.50
2019-02-26T23:28:40.099Z,3.40
2019-02-26T23:31:10.621Z,3.40
2019-02-26T23:33:41.043Z,3.40
2019-02-26T23:36:12.069Z,3.30
2019-02-26T23:38:44.179Z,3.30
2019-02-26T23:41:14.841Z,3.30
2019-02-26T23:43:45.955Z,3.30
2019-02-26T23:46:16.388Z,3.30
2019-02-26T23:48:46.810Z,3.30
2019-02-26T23:51:20.293Z,3.30
2019-02-26T23:53:49.224Z,3.20
2019-02-26T23:56:19.894Z,3.20
2019-02-26T23:58:51.511Z,3.20
